Timeline UpdatesTrip UpdatesNews PostsPvt PostsTravel TipsAdmin PostsConv PostsFollowed PostsChat RequestsBlog PostsPNR Posts

Disclaimer
Search
 
 
Tue Sep 23, 2014 07:49:56 ISTHomeTrainsΣChainsAtlasPNRForumGalleryNewsFAQTripsMembersLoginFeedback
No Recent News for this Train
Other Trains in the News **new
Latest...
15017/15018 Lokmanya Tilak Terminal- Gorakhpur - Lokmanya Tilak Terminal Express Train will be augmented by o­ne Additional General second class coach with immediate effect to 15.07.2013 when departing from Gorakhpur and from 03.07.2013 to 17.07.2013 when departing from Lokmanya Tilak Terminal.
Tue Jul 02, 2013 (06:16PM)
⇐ Return Journey: Train# 15017

15018/Kashi Express

Time-Table HAS CHANGED.
Yesterday (6:59PM)
Change Departure Station:
Change Arrival Station:
Post a Train Travel TipPost a Train Travel Tip **new
Post a Comment/Question/Picture/VideoPost a Comment/Question/Picture/Video
Pantry/Catering
✕ NO Pantry Car
✓ Catering Avbl
Loco/Rake Reversals
ALD/Allahabad Junction (10);
RSA - Rake Sharing
No RSA.
Rake/Coach Composition
Loco-S1-S2 (GKP-BSL)-SLR-GEN-GEN-B1-A1-S12-S11-S10-S9-S8-S7-S6-S5-S4-S3-S2-S1-GEN-GEN-GEN ;
Loco
GKP-ET: ET WDM-3A (Twins) or ET WDM-3D (Single) ET-LTT: ET WAP-4...
Read more...
/ WAM-4 or KYN WCAM/3.
News    PNR    Forum    Time-Table    Availability    Fare Chart    Map    Arr/Dep History    Trips    Gallery    ΣChains    X/O    Timeline    
Travel Time: 21h 40m    36 halts    Distance: 1131 km    Avg Speed: 52 km/hr
Type: Mail/Express
Zone: NER/North Eastern
Departs @ 20:25
Platform# 1
SMTWTFS
Maihar/MYR 
Arrives @ 18:05 +1 night
Platform# 4
SMTWTFS
Mumbai Lokmanya Tilak Terminus/LTT 

36 halts. 36 intermediate Stations between Maihar and Mumbai Lokmanya Tilak Terminus

Show ALL intermediate Stations  Show Old Time-Table

#CodeStation NameX/OArrivesAvgDepartsAvgHaltPFDay#KmSpeedElevZoneAddress
1GKPGorakhpur Junction (10)  -05:30-71-578.05984mNERGorakhpur 273001, Uttar Pradesh
2DEOSDeoria Sadar (3)X  06:13 06:20-06:15 06:25-2 5m21-529.05079mNERDeoria- 274001, Uttar Pradesh
3BTTBhatni Junction (5)X  06:55 06:50-07:00 06:55-5m11-508.05573mNERDeoria, Uttar Pradesh
4SRUSalempur Junction (2)X  07:13 07:06-07:15 07:08-2m21-498.05571mNERSalempur, Uttar Pradesh
5LRDLar Road (2)X  07:24 07:19-07:26 07:21-2m11-488.06074mNERDeoria, Uttar Pradesh
6BLTRBelthara Road (2)X  07:40 07:34-07:42 07:36-2m11-475.04470mNERBelthara, Uttar Pradesh
7IAAIndara Junction (3)  08:16 08:13-08:18 08:15-2m--1-448.02874mNERMau, Uttar Pradesh
8MAUMau Junction (4)  08:30 08:32-08:35 08:37-5m21-440.06375mNERMau., Uttar Pradesh
9DLRDullahapurX  08:57-08:59-2m11-419.03479mNERDullahapur, Uttar Pradesh
10JKNJakhanian  09:13-09:15-2m--1-411.05882mNERState Highway 67, Uttar Pradesh
11ARJAunrihar Junction (4)  09:45-09:47-2m--1-382.03380mNERGhazipur, Uttar Pradesh
12BCYVaranasi City (3)X  10:35 10:45-10:37 10:47-2m21-350.01077mNERVaranasi, Uttar Pradesh
13BSBVaranasi Junction (9)  11:05-11:15-10m41-347.03782mNRVaranasi 221002, Uttar Pradesh
14CHHChaukhandi  11:41-11:43-2m--1-331.06084mNR221405, Uttar Pradesh
15SWPRSewapuri (2)  11:49-11:51-2m11-325.05187mNRState Highway 87, Uttar Pradesh
16KEHKapseti (2)  11:58-12:00-2m--1-319.05385mNRState Highway 87, Uttar Pradesh
17PRFParsipur (2)  12:09-12:11-2m--1-311.06987mNRSant Ravidas Nagar, Uttar Pradesh
18BOYBhadohi (2)X  12:18-12:20-2m--1-303.05490mNRUttar Pradesh 221401, Uttar Pradesh
19MOFMondh (2)  12:30-12:32-2m21-294.05291mNRUttar Pradesh 221406, Uttar Pradesh
20SAWSuriawan (2)X  12:40-12:42-2m--1-287.07590mNR221404, Uttar Pradesh
21SQNSarai Kansrai (2)  12:50-12:52-2m--1-277.02792mNRGopalaha Marg, Uttar Pradesh
22JNHJanghai Junction (3)X  13:03-13:08-5m--1-272.01092mNRUttar Pradesh 212401, Uttar Pradesh
23URPRUgrasenpur (2)  14:23-14:25-2m11-259.06096mNRJanghai, Uttar Pradesh
24PLPPhulpur (3)  14:35-14:37-2m--1-249.05193mNRDistrict - Allahabad 212402, Uttar Pradesh
25SYCSarai ChandiX  14:50-14:52-2m--1-238.02895mNR221507, Uttar Pradesh
26PFMPhaphamau Junction (3)  15:20-15:22-2m--1-225.02699mNRAllahabad, Uttar Pradesh
27PRGPrayag Junction (3)  15:36-15:38-2m--1-219.01696mNRAllahabad, Uttar Pradesh
28ALDAllahabad Junction (10)16:00-16:25-25m81-213.018100mNCRAllahabad 211003, Uttar Pradesh
29NYNNaini Junction (4)  16:48-16:50-2m31-206.07498mNCRAllahabad, Uttar Pradesh
30JSRJasra (2)  17:03-17:05-2m--1-190.06997mNCRJasra, Uttar Pradesh
31SRJShankargarh (3)X  17:24-17:26-2m--1-168.077132mNCRShankargarh, Uttar Pradesh
32DBRDabhaura (2)  17:51-17:53-2m--1-136.041201mNCRDabhaura, Uttar Pradesh
33MKPManikpur Junction (4)  18:27-18:32-5m--1-113.080250mNCRManikpur, Uttar Pradesh
34JTWJaitwar (2)X  19:14 19:15-19:16 19:17-2m--1-56.036321mWCRJaitwar, Madhya Pradesh
35STASatna Junction (3)  19:50-20:00-10m21-36.094322mWCRSatna, Madhya Pradesh
36MYRMaihar (3)»  20:23-20:25-2m110.084353mWCRMaihar Railway Station, Madhya Pradesh
37KTEKatni Junction (6)X  21:10-21:15-5m3163.082387mWCRKatni, Madhya Pradesh
38SHRSihora Road (2)  21:53-21:55-2m--1115.024388mWCRJabalpur, Madhya Pradesh
39JBPJabalpur Junction (4)  23:30-23:40-10m11153.040416mWCRJabalpur, Madhya Pradesh
40MMLMadan Mahal (3)X  23:46-23:48-2m--1157.084428mWCRJabalpur, Madhya Pradesh
41SRIDShridham (3)  00:23-00:25-2m32206.049373mWCRShridham, Madhya Pradesh
42NUNarsinghpur (2)  01:03-01:05-2m22237.074365mWCRNarsimhapur, Madhya Pradesh
43KYKareli (2)  01:18-01:20-2m22253.087361mWCRKareli, Madhya Pradesh
44GARGadarwara (2)XO  01:40-01:42-2m22282.072352mWCRNarsinghpur, Madhya Pradesh
45PPIPipariya (3)XO  02:20 02:23-02:22 02:25-2m22331.083338mWCRPiparia, Madhya Pradesh
46SGPSohagpur (2)X  02:38-02:40-2m--2349.029340mWCRSohagpur, Madhya Pradesh
47ETItarsi Junction (7)04:20-04:30-10m32398.082329mWCRItarsi 461111, Madhya Pradesh
48BPFBanapura (2)  04:54-04:56-2m12431.079314mWCRBanapura, Madhya Pradesh
49TBNTimarni (2)  05:18-05:20-2m22460.060308mWCRTimarni, Madhya Pradesh
50HDHarda (3)  05:34-05:36-2m12474.074289mWCRHarda, Madhya Pradesh
51KKNKhirkiya (2)X  06:01-06:03-2m12505.074281mWCRSH 15, Madhya Pradesh
52BRUDBarud (2)  06:20-06:22-2m--2526.067273mWCRKhandwa, Madhya Pradesh
53CAERChhanera (2)XO  06:31-06:33-2m--2536.060283mWCRChhanera, Madhya Pradesh
54SGBJSurgaon Banjari (2) new halt!!  06:51-06:53-2m--2554.080298mWCRKhandwa, Madhya Pradesh
55TLVTalvadiya (2)  07:02-07:04-2m--2566.013308mWCRKhandwa, Madhya Pradesh
56KNWKhandwa Junction (5)X  08:15-08:20-5m32581.078310mCRKhandwa, Madhya Pradesh
57NPNRNepanagar (2)  08:53-08:55-2m--2624.087289mCRState Highway 27, Madhya Pradesh
58BAUBurhanpur (2)  09:13-09:15-2m12650.080269mCRBurhanpur, Madhya Pradesh
59RVRaver (2)  09:30-09:32-2m--2670.064242mCRJalgaon, Maharashtra
60BSLBhusaval Junction (8)  10:05-10:20-15m52705.069208mCRBhusaval 425201, Maharashtra
61JLJalgaon Junction (4)  10:41-10:43-2m22729.082213mCRJalgaon 425001, Maharashtra
62PCPachora Junction (4)  11:18-11:20-2m--2777.080264mCRPachora 424201, Maharashtra
63CSNChalisgaon Junction (3)X  11:53-11:55-2m--2821.0103352mCRChalisgaon 424101, Maharashtra
64NGNNandgaon (3)X  12:25 12:20-12:27 12:22-2m--2864.083476mCRNandgaon, Maharashtra
65MMRManmad Junction (6)X  12:50 12:40-12:55 12:45-5m32889.080580mCRManmad 423104, Maharashtra
66LSLasalgaon (3)X  13:15 13:03-13:17 13:05-2m--2913.059592mCRLasalgaon, Maharashtra
67NKNasik Road (3)  13:58 13:55-14:00-2 5m32962.038563mCRNashik 422101, Maharashtra
68DVLDevlali (3)X  14:08-14:10-2m22967.034561mCRDist. Nashik 422401, Maharashtra
69IGPIgatpuri (4)X  15:33 15:30-15:35-2 5m--21012.032589mCRIgatpuri 422403, Maharashtra
70KSRAKasara (4)  16:23 16:03-16:25 16:05-2m--21027.065290mCRDist. Thane 421602, Maharashtra
71KYNKalyan Junction (8)X  17:25 17:07-17:30 17:10-5 3m621094.06710mCRKalyan 421301, Maharashtra
72TNAThane (10)  17:48 17:28-17:50 17:30-2m821114.02910mCRThane (West) 400602, Maharashtra
73LTTMumbai Lokmanya Tilak Terminus (5)•  18:40 18:05--421131.0-7mCRMumbai - 400089, Maharashtra
Scroll to Top
Scroll to Bottom